createdAt,value
2019-01-24T00:00:47.905Z,-1.47
2019-01-24T00:03:20.427Z,-1.41
2019-01-24T00:05:53.476Z,-1.37
2019-01-24T00:08:25.440Z,-1.36
2019-01-24T00:10:57.398Z,-1.33
2019-01-24T00:13:29.124Z,-1.36
2019-01-24T00:16:00.814Z,-1.39
2019-01-24T00:18:32.910Z,-1.39
2019-01-24T00:21:04.674Z,-1.40
2019-01-24T00:23:36.376Z,-1.41
2019-01-24T00:26:08.130Z,-1.41
2019-01-24T00:28:40.092Z,-1.38
2019-01-24T00:31:11.816Z,-1.35
2019-01-24T00:33:43.577Z,-1.32
2019-01-24T00:36:15.693Z,-1.27
2019-01-24T00:38:47.543Z,-1.22
2019-01-24T00:41:19.257Z,-1.18
2019-01-24T00:43:51.022Z,-1.21
2019-01-24T00:46:22.864Z,-1.21
2019-01-24T00:48:54.555Z,-1.23
2019-01-24T00:51:26.617Z,-1.26
2019-01-24T00:53:58.304Z,-1.31
2019-01-24T00:56:29.981Z,-1.33
2019-01-24T00:59:01.691Z,-1.30
2019-01-24T01:01:33.374Z,-1.30
2019-01-24T01:04:05.083Z,-1.30
2019-01-24T01:06:36.760Z,-1.28
2019-01-24T01:09:08.657Z,-1.34
2019-01-24T01:11:40.344Z,-1.38
2019-01-24T01:14:12.035Z,-1.41
2019-01-24T01:16:43.743Z,-1.39
2019-01-24T01:19:15.427Z,-1.37
2019-01-24T01:21:47.227Z,-1.35
2019-01-24T01:24:18.919Z,-1.34
2019-01-24T01:26:51.019Z,-1.31
2019-01-24T01:29:22.779Z,-1.29
2019-01-24T01:31:54.501Z,-1.28
2019-01-24T01:34:26.162Z,-1.26
2019-01-24T01:36:57.862Z,-1.24
2019-01-24T01:39:29.552Z,-1.26
2019-01-24T01:42:01.419Z,-1.29
2019-01-24T01:44:33.442Z,-1.28
2019-01-24T01:47:05.498Z,-1.26
2019-01-24T01:49:37.177Z,-1.24
2019-01-24T01:52:08.892Z,-1.27
2019-01-24T01:54:40.579Z,-1.29
2019-01-24T01:57:12.448Z,-1.28
2019-01-24T01:59:44.139Z,-1.28
2019-01-24T02:02:15.820Z,-1.30
2019-01-24T02:04:47.511Z,-1.37
2019-01-24T02:07:19.238Z,-1.42
2019-01-24T02:09:50.914Z,-1.43
2019-01-24T02:12:22.606Z,-1.40
2019-01-24T02:14:54.322Z,-1.35
2019-01-24T02:17:26.014Z,-1.30
2019-01-24T02:19:57.696Z,-1.26
2019-01-24T02:22:29.401Z,-1.22
2019-01-24T02:25:01.088Z,-1.19
2019-01-24T02:27:32.791Z,-1.16
2019-01-24T02:30:23.851Z,-1.15
2019-01-24T02:32:55.555Z,-1.15
2019-01-24T02:35:27.313Z,-1.13
2019-01-24T02:37:59.025Z,-1.11
2019-01-24T02:40:30.743Z,-1.12
2019-01-24T02:43:02.416Z,-1.13
2019-01-24T02:45:34.151Z,-1.14
2019-01-24T02:48:05.901Z,-1.14
2019-01-24T02:50:37.630Z,-1.14
2019-01-24T02:53:09.315Z,-1.14
2019-01-24T02:55:41.041Z,-1.14
2019-01-24T02:58:12.984Z,-1.13
2019-01-24T03:00:44.689Z,-1.11
2019-01-24T03:03:16.384Z,-1.14
2019-01-24T03:05:48.103Z,-1.15
2019-01-24T03:08:19.785Z,-1.17
2019-01-24T03:10:51.504Z,-1.22
2019-01-24T03:13:23.196Z,-1.25
2019-01-24T03:15:54.897Z,-1.25
2019-01-24T03:18:26.587Z,-1.23
2019-01-24T03:20:58.278Z,-1.22
2019-01-24T03:23:29.976Z,-1.22
2019-01-24T03:26:01.671Z,-1.21
2019-01-24T03:28:33.357Z,-1.19
2019-01-24T03:31:05.049Z,-1.16
2019-01-24T03:33:36.761Z,-1.12
2019-01-24T03:36:08.455Z,-1.08
2019-01-24T03:38:40.470Z,-1.06
2019-01-24T03:41:12.153Z,-1.04
2019-01-24T03:43:43.842Z,-1.05
2019-01-24T03:46:15.534Z,-1.06
2019-01-24T03:48:47.308Z,-1.08
2019-01-24T03:51:18.983Z,-1.09
2019-01-24T03:53:50.710Z,-1.08
2019-01-24T03:56:22.768Z,-1.09
2019-01-24T03:58:54.527Z,-1.08
2019-01-24T04:01:26.218Z,-1.06
2019-01-24T04:03:57.909Z,-1.10
2019-01-24T04:06:29.610Z,-1.14
2019-01-24T04:09:01.359Z,-1.16
2019-01-24T04:11:33.137Z,-1.15
2019-01-24T04:14:05.456Z,-1.17
2019-01-24T04:16:37.164Z,-1.22
2019-01-24T04:19:08.844Z,-1.21
2019-01-24T04:21:40.538Z,-1.21
2019-01-24T04:24:12.248Z,-1.22
2019-01-24T04:26:43.927Z,-1.25
2019-01-24T04:29:15.636Z,-1.25
2019-01-24T04:31:47.320Z,-1.25
2019-01-24T04:34:19.022Z,-1.24
2019-01-24T04:36:50.714Z,-1.22
2019-01-24T04:39:22.396Z,-1.17
2019-01-24T04:41:54.858Z,-1.14
2019-01-24T04:44:26.550Z,-1.12
2019-01-24T04:46:58.627Z,-1.10
2019-01-24T04:49:30.335Z,-1.10
2019-01-24T04:52:02.034Z,-1.12
2019-01-24T04:54:33.789Z,-1.14
2019-01-24T04:57:05.503Z,-1.12
2019-01-24T04:59:37.182Z,-1.07
2019-01-24T05:02:08.880Z,-1.04
2019-01-24T05:04:40.573Z,-1.04
2019-01-24T05:07:12.249Z,-1.03
2019-01-24T05:09:43.942Z,-1.02
2019-01-24T05:12:15.620Z,-1.00
2019-01-24T05:14:47.318Z,-1.00
2019-01-24T05:17:19.012Z,-1.01
2019-01-24T05:19:50.694Z,-1.00
2019-01-24T05:22:22.818Z,-1.03
2019-01-24T05:24:54.722Z,-1.02
2019-01-24T05:27:26.416Z,-1.00
2019-01-24T05:29:58.584Z,-0.99
2019-01-24T05:32:30.306Z,-0.94
2019-01-24T05:35:02.047Z,-0.95
2019-01-24T05:37:33.796Z,-1.03
2019-01-24T05:40:08.416Z,-0.97
2019-01-24T05:42:40.112Z,-0.98
2019-01-24T05:45:14.194Z,-0.94
2019-01-24T05:47:46.261Z,-0.92
2019-01-24T05:50:18.016Z,-0.94
2019-01-24T05:52:49.712Z,-0.95
2019-01-24T05:55:21.426Z,-0.92
2019-01-24T05:57:53.120Z,-0.90
2019-01-24T06:00:26.479Z,-0.88
2019-01-24T06:02:58.239Z,-0.86
2019-01-24T06:05:29.953Z,-0.85
2019-01-24T06:08:01.985Z,-0.84
2019-01-24T06:10:33.682Z,-0.82
2019-01-24T06:13:05.370Z,-0.81
2019-01-24T06:15:37.074Z,-0.81
2019-01-24T06:18:08.766Z,-0.81
2019-01-24T06:20:40.499Z,-0.79
2019-01-24T06:23:12.223Z,-0.78
2019-01-24T06:25:43.933Z,-0.76
2019-01-24T06:28:15.618Z,-0.74
2019-01-24T06:30:47.318Z,-0.71
2019-01-24T06:33:18.998Z,-0.68
2019-01-24T06:35:50.714Z,-0.67
2019-01-24T06:38:22.393Z,-0.65
2019-01-24T06:40:54.105Z,-0.63
2019-01-24T06:43:25.787Z,-0.59
2019-01-24T06:45:57.510Z,-0.59
2019-01-24T06:48:29.191Z,-0.60
2019-01-24T06:51:00.951Z,-0.60
2019-01-24T06:53:32.638Z,-0.59
2019-01-24T06:56:04.423Z,-0.60
2019-01-24T06:58:36.433Z,-0.60
2019-01-24T07:01:08.123Z,-0.62
2019-01-24T07:03:39.812Z,-0.64
2019-01-24T07:06:11.497Z,-0.65
2019-01-24T07:08:43.269Z,-0.65
2019-01-24T07:11:14.968Z,-0.68
2019-01-24T07:13:46.770Z,-0.69
2019-01-24T07:16:18.639Z,-0.72
2019-01-24T07:18:50.385Z,-0.76
2019-01-24T07:21:22.101Z,-0.79
2019-01-24T07:23:54.121Z,-0.80
2019-01-24T07:26:25.837Z,-0.80
2019-01-24T07:28:57.533Z,-0.79
2019-01-24T07:31:29.609Z,-0.77
2019-01-24T07:34:01.297Z,-0.75
2019-01-24T07:36:33.013Z,-0.72
2019-01-24T07:39:07.004Z,-0.70
2019-01-24T07:41:38.698Z,-0.65
2019-01-24T07:44:10.397Z,-0.64
2019-01-24T07:46:42.113Z,-0.63
2019-01-24T07:49:13.793Z,-0.63
2019-01-24T07:51:45.515Z,-0.66
2019-01-24T07:54:17.279Z,-0.65
2019-01-24T07:56:49.001Z,-0.64
2019-01-24T07:59:20.677Z,-0.62
2019-01-24T08:01:52.399Z,-0.57
2019-01-24T08:04:24.117Z,-0.56
2019-01-24T08:06:55.876Z,-0.55
2019-01-24T08:09:27.574Z,-0.54
2019-01-24T08:11:59.267Z,-0.53
2019-01-24T08:14:30.959Z,-0.54
2019-01-24T08:17:02.651Z,-0.56
2019-01-24T08:19:34.400Z,-0.53
2019-01-24T08:22:06.425Z,-0.52
2019-01-24T08:24:38.120Z,-0.52
2019-01-24T08:27:09.817Z,-0.52
2019-01-24T08:29:41.499Z,-0.51
2019-01-24T08:32:13.558Z,-0.50
2019-01-24T08:34:45.339Z,-0.48
2019-01-24T08:37:17.033Z,-0.46
2019-01-24T08:39:48.813Z,-0.42
2019-01-24T08:42:20.510Z,-0.38
2019-01-24T08:44:52.201Z,-0.35
2019-01-24T08:47:24.228Z,-0.31
2019-01-24T08:49:56.189Z,-0.30
2019-01-24T08:52:27.901Z,-0.26
2019-01-24T08:54:59.675Z,-0.24
2019-01-24T08:57:31.563Z,-0.21
2019-01-24T09:00:05.263Z,-0.18
2019-01-24T09:02:36.976Z,-0.15
2019-01-24T09:05:09.011Z,-0.16
2019-01-24T09:07:40.707Z,-0.14
2019-01-24T09:10:28.733Z,-0.12
2019-01-24T09:13:00.430Z,-0.12
2019-01-24T09:15:32.782Z,-0.13
2019-01-24T09:18:05.974Z,-0.17
2019-01-24T09:20:37.741Z,-0.15
2019-01-24T09:23:09.463Z,-0.14
2019-01-24T09:25:41.156Z,-0.14
2019-01-24T09:28:14.955Z,-0.14
2019-01-24T09:30:46.288Z,-0.17
2019-01-24T09:33:18.114Z,-0.20
2019-01-24T09:35:49.804Z,-0.19
2019-01-24T09:38:21.818Z,-0.15
2019-01-24T09:40:53.532Z,-0.11
2019-01-24T09:43:25.502Z,-0.07
2019-01-24T09:45:57.378Z,-0.04
2019-01-24T09:48:29.285Z,0.02
2019-01-24T09:51:01.355Z,0.05
2019-01-24T09:53:33.092Z,0.08
2019-01-24T09:56:04.825Z,0.12
2019-01-24T09:58:39.305Z,0.15
2019-01-24T10:01:11.099Z,0.15
2019-01-24T10:03:42.926Z,0.17
2019-01-24T10:06:14.887Z,0.20
2019-01-24T10:08:46.725Z,0.23
2019-01-24T10:11:23.465Z,0.26
2019-01-24T10:13:52.085Z,0.30
2019-01-24T10:16:23.767Z,0.32
2019-01-24T10:18:56.182Z,0.32
2019-01-24T10:21:27.980Z,0.36
2019-01-24T10:23:59.983Z,0.39
2019-01-24T10:26:31.817Z,0.43
2019-01-24T10:29:03.525Z,0.46
2019-01-24T10:31:40.078Z,0.48
2019-01-24T10:34:13.226Z,0.49
2019-01-24T10:36:44.928Z,0.19
2019-01-24T10:39:16.823Z,0.52
2019-01-24T10:41:48.572Z,0.54
2019-01-24T10:44:20.607Z,0.54
2019-01-24T10:46:52.596Z,0.55
2019-01-24T10:49:24.550Z,0.57
2019-01-24T10:51:56.686Z,0.56
2019-01-24T10:54:28.456Z,0.57
2019-01-24T10:57:00.267Z,0.56
2019-01-24T10:59:32.034Z,0.57
2019-01-24T11:02:03.752Z,0.58
2019-01-24T11:04:35.477Z,0.59
2019-01-24T11:07:07.379Z,0.58
2019-01-24T11:09:39.098Z,0.59
2019-01-24T11:12:10.822Z,0.62
2019-01-24T11:14:42.519Z,0.63
2019-01-24T11:17:14.288Z,0.65
2019-01-24T11:19:46.528Z,0.67
2019-01-24T11:22:18.498Z,0.70
2019-01-24T11:24:50.289Z,0.69
2019-01-24T11:27:22.109Z,0.66
2019-01-24T11:29:54.229Z,0.58
2019-01-24T11:32:26.867Z,0.49
2019-01-24T11:34:58.704Z,0.47
2019-01-24T11:37:30.390Z,0.46
2019-01-24T11:40:02.075Z,0.40
2019-01-24T11:42:33.909Z,0.35
2019-01-24T11:45:10.156Z,0.36
2019-01-24T11:47:42.338Z,0.39
2019-01-24T11:50:16.843Z,0.41
2019-01-24T11:52:48.801Z,0.43
2019-01-24T11:55:22.293Z,0.46
2019-01-24T11:57:54.513Z,0.51
2019-01-24T12:00:34.241Z,0.56
2019-01-24T12:03:07.019Z,0.61
2019-01-24T12:05:51.087Z,0.66
2019-01-24T12:08:22.891Z,0.72
2019-01-24T12:10:55.479Z,0.77
2019-01-24T12:13:27.423Z,0.81
2019-01-24T12:15:59.359Z,0.83
2019-01-24T12:18:31.175Z,0.84
2019-01-24T12:21:02.941Z,0.83
2019-01-24T12:23:34.681Z,0.84
2019-01-24T12:26:06.442Z,0.85
2019-01-24T12:28:38.166Z,0.82
2019-01-24T12:31:09.855Z,0.78
2019-01-24T12:33:41.833Z,0.74
2019-01-24T12:36:13.520Z,0.70
2019-01-24T12:38:45.475Z,0.62
2019-01-24T12:41:17.161Z,0.59
2019-01-24T12:43:48.873Z,0.54
2019-01-24T12:46:20.560Z,0.52
2019-01-24T12:48:52.297Z,0.42
2019-01-24T12:51:24.262Z,0.35
2019-01-24T12:53:55.996Z,0.33
2019-01-24T12:56:27.682Z,0.34
2019-01-24T12:58:59.462Z,0.34
2019-01-24T13:01:31.224Z,0.38
2019-01-24T13:04:02.937Z,0.39
2019-01-24T13:06:34.635Z,0.36
2019-01-24T13:09:07.745Z,0.34
2019-01-24T13:11:39.446Z,0.24
2019-01-24T13:14:11.213Z,0.16
2019-01-24T13:16:43.275Z,0.12
2019-01-24T13:19:14.956Z,0.11
2019-01-24T13:21:46.828Z,-0.19
2019-01-24T13:24:18.603Z,0.11
2019-01-24T13:26:50.643Z,0.12
2019-01-24T13:29:22.353Z,0.11
2019-01-24T13:31:54.039Z,0.08
2019-01-24T13:34:25.750Z,0.06
2019-01-24T13:36:57.423Z,0.06
2019-01-24T13:39:29.174Z,0.03
2019-01-24T13:42:00.946Z,-0.05
2019-01-24T13:44:32.652Z,-0.06
2019-01-24T13:47:04.335Z,-0.07
2019-01-24T13:49:36.088Z,-0.05
2019-01-24T13:52:08.204Z,-0.03
2019-01-24T13:54:40.151Z,-0.03
2019-01-24T13:57:11.846Z,-0.03
2019-01-24T13:59:43.670Z,-0.02
2019-01-24T14:02:27.006Z,0.01
2019-01-24T14:04:58.708Z,0.00
2019-01-24T14:07:33.035Z,0.04
2019-01-24T14:10:06.325Z,0.05
2019-01-24T14:12:38.004Z,0.05
2019-01-24T14:15:18.588Z,0.07
2019-01-24T14:17:50.273Z,0.11
2019-01-24T14:20:22.752Z,0.10
2019-01-24T14:22:55.350Z,0.09
2019-01-24T14:25:27.038Z,0.10
2019-01-24T14:27:59.743Z,0.12
2019-01-24T14:30:31.538Z,0.14
2019-01-24T14:33:03.214Z,0.17
2019-01-24T14:35:35.379Z,0.20
2019-01-24T14:38:08.673Z,0.23
2019-01-24T14:40:40.350Z,0.23
2019-01-24T14:43:12.038Z,0.25
2019-01-24T14:45:43.748Z,0.24
2019-01-24T14:48:15.455Z,0.25
2019-01-24T14:50:47.161Z,0.25
2019-01-24T14:53:18.844Z,0.24
2019-01-24T14:55:50.798Z,0.26
2019-01-24T14:58:22.680Z,0.25
2019-01-24T15:00:59.378Z,0.26
2019-01-24T15:03:31.103Z,0.27
2019-01-24T15:06:04.975Z,0.28
2019-01-24T15:08:37.155Z,0.27
2019-01-24T15:11:09.395Z,0.25
2019-01-24T15:13:41.676Z,0.22
2019-01-24T15:16:13.385Z,0.17
2019-01-24T15:18:45.063Z,0.13
2019-01-24T15:21:16.742Z,0.11
2019-01-24T15:23:48.458Z,0.05
2019-01-24T15:26:20.511Z,0.01
2019-01-24T15:28:52.530Z,-0.02
2019-01-24T15:31:24.655Z,-0.05
2019-01-24T15:33:56.378Z,-0.07
2019-01-24T15:36:28.068Z,-0.08
2019-01-24T15:38:59.852Z,-0.09
2019-01-24T15:41:31.649Z,-0.11
2019-01-24T15:44:03.593Z,-0.12
2019-01-24T15:46:35.348Z,-0.13
2019-01-24T15:49:07.032Z,-0.14
2019-01-24T15:51:38.765Z,-0.15
2019-01-24T15:54:10.462Z,-0.16
2019-01-24T15:56:42.179Z,-0.18
2019-01-24T15:59:13.943Z,-0.19
2019-01-24T16:01:45.635Z,-0.18
2019-01-24T16:04:19.914Z,-0.17
2019-01-24T16:06:51.083Z,-0.16
2019-01-24T16:09:23.071Z,-0.14
2019-01-24T16:11:54.797Z,-0.13
2019-01-24T16:14:26.480Z,-0.14
2019-01-24T16:16:58.826Z,-0.14
2019-01-24T16:19:31.093Z,-0.16
2019-01-24T16:22:03.589Z,-0.16
2019-01-24T16:24:35.406Z,-0.15
2019-01-24T16:27:07.621Z,-0.12
2019-01-24T16:29:39.342Z,-0.11
2019-01-24T16:32:11.028Z,-0.07
2019-01-24T16:34:42.754Z,-0.07
2019-01-24T16:37:15.163Z,-0.03
2019-01-24T16:39:46.860Z,0.00
2019-01-24T16:42:18.674Z,0.03
2019-01-24T16:44:50.690Z,0.04
2019-01-24T16:47:22.399Z,0.05
2019-01-24T16:49:54.086Z,0.06
2019-01-24T16:52:25.780Z,0.07
2019-01-24T16:54:57.969Z,0.07
2019-01-24T16:57:29.935Z,0.08
2019-01-24T17:00:01.668Z,0.10
2019-01-24T17:02:33.761Z,0.12
2019-01-24T17:05:07.764Z,0.13
2019-01-24T17:07:39.847Z,0.13
2019-01-24T17:10:23.950Z,0.13
2019-01-24T17:12:56.469Z,0.12
2019-01-24T17:15:28.225Z,0.12
2019-01-24T17:18:00.597Z,-0.02
2019-01-24T17:20:32.922Z,0.12
2019-01-24T17:23:05.506Z,0.13
2019-01-24T17:25:37.505Z,0.13
2019-01-24T17:28:09.236Z,0.13
2019-01-24T17:30:44.060Z,0.11
2019-01-24T17:33:16.068Z,0.11
2019-01-24T17:35:48.391Z,0.11
2019-01-24T17:38:23.899Z,0.09
2019-01-24T17:40:53.641Z,0.09
2019-01-24T17:43:25.415Z,0.11
2019-01-24T17:45:57.092Z,0.11
2019-01-24T17:48:28.787Z,0.14
2019-01-24T17:51:00.564Z,0.16
2019-01-24T17:53:32.613Z,0.21
2019-01-24T17:56:04.641Z,0.23
2019-01-24T17:58:36.313Z,0.26
2019-01-24T18:01:08.051Z,0.28
2019-01-24T18:03:39.748Z,0.28
2019-01-24T18:06:11.492Z,0.27
2019-01-24T18:08:43.355Z,0.25
2019-01-24T18:11:15.100Z,0.27
2019-01-24T18:13:46.800Z,0.29
2019-01-24T18:16:18.756Z,0.31
2019-01-24T18:18:50.427Z,0.31
2019-01-24T18:21:22.293Z,0.32
2019-01-24T18:23:54.298Z,0.32
2019-01-24T18:26:25.998Z,0.34
2019-01-24T18:28:58.208Z,0.31
2019-01-24T18:31:29.908Z,0.29
2019-01-24T18:34:01.659Z,0.28
2019-01-24T18:36:33.439Z,0.27
2019-01-24T18:39:08.483Z,0.23
2019-01-24T18:41:40.176Z,0.23
2019-01-24T18:44:11.858Z,0.21
2019-01-24T18:46:43.906Z,0.21
2019-01-24T18:49:15.658Z,0.21
2019-01-24T18:51:47.370Z,0.23
2019-01-24T18:54:19.060Z,0.20
2019-01-24T18:56:51.065Z,0.18
2019-01-24T18:59:23.037Z,0.13
2019-01-24T19:01:54.955Z,0.11
2019-01-24T19:04:27.686Z,0.09
2019-01-24T19:07:00.019Z,-0.24
2019-01-24T19:09:32.064Z,0.06
2019-01-24T19:12:04.179Z,-0.27
2019-01-24T19:14:35.938Z,0.00
2019-01-24T19:17:07.616Z,0.01
2019-01-24T19:19:42.182Z,-0.05
2019-01-24T19:22:13.901Z,-0.07
2019-01-24T19:24:45.596Z,-0.09
2019-01-24T19:27:17.348Z,-0.10
2019-01-24T19:29:49.043Z,-0.09
2019-01-24T19:32:20.758Z,-0.10
2019-01-24T19:34:52.698Z,-0.12
2019-01-24T19:37:24.374Z,-0.12
2019-01-24T19:39:56.078Z,-0.11
2019-01-24T19:42:27.772Z,-0.13
2019-01-24T19:44:59.515Z,-0.13
2019-01-24T19:47:31.217Z,-0.16
2019-01-24T19:50:02.959Z,-0.19
2019-01-24T19:52:34.673Z,-0.20
2019-01-24T19:55:10.513Z,-0.20
2019-01-24T19:57:42.191Z,-0.19
2019-01-24T20:00:25.318Z,-0.21
2019-01-24T20:02:57.485Z,-0.22
2019-01-24T20:05:29.160Z,-0.24
2019-01-24T20:08:00.854Z,-0.26
2019-01-24T20:10:32.602Z,-0.26
2019-01-24T20:13:05.466Z,-0.25
2019-01-24T20:15:37.223Z,-0.27
2019-01-24T20:18:08.933Z,-0.26
2019-01-24T20:20:40.660Z,-0.25
2019-01-24T20:23:12.378Z,-0.25
2019-01-24T20:25:44.160Z,-0.26
2019-01-24T20:28:15.863Z,-0.29
2019-01-24T20:30:49.827Z,-0.30
2019-01-24T20:33:22.475Z,-0.31
2019-01-24T20:35:54.934Z,-0.35
2019-01-24T20:38:26.778Z,-0.33
2019-01-24T20:40:58.804Z,-0.33
2019-01-24T20:43:35.356Z,-0.33
2019-01-24T20:46:04.453Z,-0.37
2019-01-24T20:48:36.134Z,-0.39
2019-01-24T20:51:07.822Z,-0.40
2019-01-24T20:53:40.529Z,-0.42
2019-01-24T20:56:12.994Z,-0.44
2019-01-24T20:58:44.797Z,-0.46
2019-01-24T21:01:16.519Z,-0.47
2019-01-24T21:03:55.108Z,-0.47
2019-01-24T21:06:21.673Z,-0.48
2019-01-24T21:08:53.415Z,-0.48
2019-01-24T21:11:25.406Z,-0.46
2019-01-24T21:13:57.122Z,-0.44
2019-01-24T21:16:28.806Z,-0.44
2019-01-24T21:19:00.524Z,-0.44
2019-01-24T21:21:32.415Z,-0.42
2019-01-24T21:24:04.488Z,-0.43
2019-01-24T21:26:36.357Z,-0.44
2019-01-24T21:29:08.378Z,-0.45
2019-01-24T21:31:40.344Z,-0.44
2019-01-24T21:34:12.128Z,-0.43
2019-01-24T21:36:43.896Z,-0.43
2019-01-24T21:39:21.984Z,-0.43
2019-01-24T21:41:49.004Z,-0.42
2019-01-24T21:44:20.718Z,-0.43
2019-01-24T21:46:52.571Z,-0.43
2019-01-24T21:49:24.562Z,-0.41
2019-01-24T21:51:56.236Z,-0.39
2019-01-24T21:54:27.947Z,-0.41
2019-01-24T21:56:59.642Z,-0.42
2019-01-24T21:59:31.356Z,-0.43
2019-01-24T22:02:03.096Z,-0.44
2019-01-24T22:04:34.799Z,-0.44
2019-01-24T22:07:06.793Z,-0.45
2019-01-24T22:09:38.504Z,-0.45
2019-01-24T22:12:10.249Z,-0.47
2019-01-24T22:14:41.934Z,-0.53
2019-01-24T22:17:13.635Z,-0.54
2019-01-24T22:19:45.418Z,-0.52
2019-01-24T22:22:17.098Z,-0.56
2019-01-24T22:24:48.838Z,-0.64
2019-01-24T22:27:20.590Z,-0.64
2019-01-24T22:29:52.296Z,-0.64
2019-01-24T22:32:24.017Z,-0.68
2019-01-24T22:34:55.791Z,-0.69
2019-01-24T22:37:27.513Z,-0.67
2019-01-24T22:39:59.198Z,-0.66
2019-01-24T22:42:30.989Z,-0.64
2019-01-24T22:45:02.680Z,-0.62
2019-01-24T22:47:34.365Z,-0.61
2019-01-24T22:50:11.076Z,-0.67
2019-01-24T22:52:43.057Z,-0.67
2019-01-24T22:55:14.817Z,-0.71
2019-01-24T22:57:46.512Z,-0.68
2019-01-24T23:00:48.854Z,-0.66
2019-01-24T23:03:25.828Z,-0.67
2019-01-24T23:05:57.575Z,-0.65
2019-01-24T23:08:29.560Z,-0.66
2019-01-24T23:11:01.653Z,-0.68
2019-01-24T23:13:33.374Z,-0.71
2019-01-24T23:16:05.378Z,-0.76
2019-01-24T23:18:37.116Z,-0.79
2019-01-24T23:21:08.832Z,-0.81
2019-01-24T23:23:40.554Z,-0.80
2019-01-24T23:26:12.265Z,-0.82
2019-01-24T23:28:43.984Z,-0.79
2019-01-24T23:31:15.702Z,-0.74
2019-01-24T23:33:47.423Z,-0.70
2019-01-24T23:36:19.139Z,-0.66
2019-01-24T23:38:50.931Z,-0.64
2019-01-24T23:41:22.646Z,-0.59
2019-01-24T23:43:54.385Z,-0.56
2019-01-24T23:46:26.092Z,-0.53
2019-01-24T23:48:57.809Z,-0.51
2019-01-24T23:51:29.613Z,-0.51
2019-01-24T23:54:01.435Z,-0.53
2019-01-24T23:56:33.175Z,-0.53
2019-01-24T23:59:05.145Z,-0.51
